Air Quality Table

TIMESTAMP NO2 SO2 O3 PM10 PM2.5 CO TEMP HUM AIRPRES WS WD NO BENZENE
2022-10-04 17:00 21.45 µg/m3 0.07 µg/m3 55.02 µg/m3 24 µg/m3 7.34 µg/m3 0.42 mg/m3 24.95 °C 65.61 % 1,017.71 mbar 2.29 m/s 153.4 Deg 8.46 µg/m3 6.51 µg/m3
2022-10-04 09:00 38.57 µg/m3 0.05 µg/m3 33.03 µg/m3 17.86 µg/m3 6.55 µg/m3 0.48 mg/m3 22.94 °C 79.72 % 1,015.01 mbar 1.11 m/s 157.34 Deg 17.52 µg/m3 4.91 µg/m3
2022-10-04 01:00 12.51 µg/m3 -0.31 µg/m3 54.86 µg/m3 15.66 µg/m3 6.68 µg/m3 0.51 mg/m3 23.29 °C 80.18 % 1,014.54 mbar 1.53 m/s 246.84 Deg 1.83 µg/m3 2.68 µg/m3
2022-10-03 17:00 10.94 µg/m3 -0.28 µg/m3 67.69 µg/m3 14.33 µg/m3 6.24 µg/m3 0.38 mg/m3 25.17 °C 72.19 % 1,015.62 mbar 4.6 m/s 307.99 Deg 3.41 µg/m3 7.02 µg/m3
2022-10-03 09:00 19.92 µg/m3 -0.28 µg/m3 44.95 µg/m3 14.05 µg/m3 5.64 µg/m3 0.32 mg/m3 22.79 °C 79.55 % 1,017.08 mbar 2.18 m/s 292.86 Deg 4.02 µg/m3 7.11 µg/m3
2022-10-03 01:00 12.64 µg/m3 -0.36 µg/m3 57.35 µg/m3 16.19 µg/m3 6.93 µg/m3 0.23 mg/m3 23.35 °C 80.5 % 1,019.73 mbar 2.12 m/s 294.54 Deg 1.49 µg/m3 1.35 µg/m3
2022-10-02 17:00 10.03 µg/m3 -0.23 µg/m3 70.32 µg/m3 11.79 µg/m3 4.73 µg/m3 0.27 mg/m3 24.43 °C 63.65 % 1,022.26 mbar 4.12 m/s 288.2 Deg 2.56 µg/m3 1.38 µg/m3
2022-10-02 09:00 9.56 µg/m3 -0.39 µg/m3 68.58 µg/m3 11.57 µg/m3 4.25 µg/m3 0.38 mg/m3 22.72 °C 62.3 % 1,022.49 mbar 3.59 m/s 281.74 Deg 0.58 µg/m3 3.68 µg/m3
2022-10-02 01:00 8.83 µg/m3 -0.36 µg/m3 64.78 µg/m3 17.35 µg/m3 6.91 µg/m3 0.58 mg/m3 24.15 °C 66.47 % 1,020.69 mbar 3.85 m/s 333.24 Deg 1.36 µg/m3 1.4 µg/m3
2022-10-01 17:00 12.03 µg/m3 -0.32 µg/m3 64.3 µg/m3 30.8 µg/m3 12.97 µg/m3 0.51 mg/m3 26.16 °C 79.79 % 1,017.12 mbar 4.22 m/s 190.17 Deg 3.98 µg/m3 1.56 µg/m3
2022-10-01 09:00 13.11 µg/m3 -0.36 µg/m3 58.29 µg/m3 43.77 µg/m3 19.08 µg/m3 0.39 mg/m3 25.46 °C 93.04 % 1,012.02 mbar 3.73 m/s 72.22 Deg 1.87 µg/m3 2.39 µg/m3
2022-10-01 01:00 11.43 µg/m3 -0.26 µg/m3 47.53 µg/m3 42.58 µg/m3 17.57 µg/m3 0.36 mg/m3 25.78 °C 89.07 % 1,009.28 mbar 1.72 m/s 163.69 Deg 1.62 µg/m3 3.09 µg/m3
2022-09-30 17:00 22.29 µg/m3 -0.19 µg/m3 47.61 µg/m3 38.3 µg/m3 13.49 µg/m3 0.41 mg/m3 27.27 °C 78.8 % 1,009.62 mbar 1.7 m/s 148.36 Deg 6.87 µg/m3 4.05 µg/m3
2022-09-30 09:00 41.98 µg/m3 0.15 µg/m3 26.31 µg/m3 19.59 µg/m3 7.74 µg/m3 0.52 mg/m3 23.96 °C 83.5 % 1,008.63 mbar 0.58 m/s 180.51 Deg 17.8 µg/m3 5.02 µg/m3
2022-09-30 01:00 43 µg/m3 0.11 µg/m3 528.37 µg/m3 13.06 µg/m3 6.11 µg/m3 0.62 mg/m3 23.71 °C 74.77 % 1,008.85 mbar 0.98 m/s 200.78 Deg 11.4 µg/m3 4.33 µg/m3
2022-09-29 17:00 23.56 µg/m3 -0.01 µg/m3 60.16 µg/m3 11.84 µg/m3 4.88 µg/m3 0.51 mg/m3 26.82 °C 57.83 % 1,008.59 mbar 4.22 m/s 238.08 Deg 9.91 µg/m3 1.26 µg/m3
2022-09-29 09:00 39.9 µg/m3 0.17 µg/m3 32.71 µg/m3 12.71 µg/m3 4.83 µg/m3 0.53 mg/m3 22.49 °C 74.84 % 1,009.04 mbar 1.69 m/s 234.02 Deg 21.65 µg/m3 5.31 µg/m3
2022-09-29 01:00 22.65 µg/m3 -0.14 µg/m3 48.93 µg/m3 11.63 µg/m3 5.09 µg/m3 0.56 mg/m3 22.55 °C 71.72 % 1,009.57 mbar 1.29 m/s 242.02 Deg 6.12 µg/m3 1.46 µg/m3
2022-09-28 17:00 15.48 µg/m3 -0.34 µg/m3 69.79 µg/m3 11.08 µg/m3 4.82 µg/m3 0.43 mg/m3 25.29 °C 63.43 % 1,009.38 mbar 4.24 m/s 283.15 Deg 5.5 µg/m3 3.11 µg/m3
2022-09-28 09:00 26.74 µg/m3 -0.29 µg/m3 57.83 µg/m3 9.64 µg/m3 4.06 µg/m3 0.42 mg/m3 23.33 °C 70.26 % 1,009.33 mbar 1.92 m/s 268.44 Deg 7.45 µg/m3 2.48 µg/m3

It is to be noted that the data is provisional and subject to quality assurance procedures. For validated data kindly refer your request to contact.air@era.org.mt